Time;durP1;ratioP1;P1;durP2;ratioP2;P2;SDS_P1;SDS_P2;PMS_P1;PMS_P2;Temp;Humidity;BMP_temperature;BMP_pressure;BME280_temperature;BME280_humidity;BME280_pressure;Samples;Min_cycle;Max_cycle;Signal;HPM_P1;HPM_P2
2023/05/17 00:01:23;;;;;;;11.02;4.85;;;;;;;7.65;100.00;102282.09;5034698;28;20024;-83
2023/05/17 00:03:48;;;;;;;13.63;5.03;;;;;;;7.63;100.00;102275.91;5057426;28;20115;-83
2023/05/17 00:06:14;;;;;;;13.63;5.40;;;;;;;7.61;100.00;102280.38;5039746;28;20048;-83
2023/05/17 00:08:39;;;;;;;9.40;4.70;;;;;;;7.58;100.00;102279.56;5048320;28;20067;-83
2023/05/17 00:11:05;;;;;;;17.63;5.75;;;;;;;7.54;100.00;102286.66;5052542;28;20517;-83
2023/05/17 00:13:31;;;;;;;15.65;5.47;;;;;;;7.58;100.00;102279.56;5051804;28;20028;-83
2023/05/17 00:15:56;;;;;;;18.20;5.97;;;;;;;7.54;100.00;102285.81;5048186;28;20955;-83
2023/05/17 00:18:21;;;;;;;13.88;5.20;;;;;;;7.46;100.00;102289.44;5060267;28;20063;-82
2023/05/17 00:20:47;;;;;;;12.93;5.15;;;;;;;7.45;100.00;102287.69;5057981;28;20028;-82
2023/05/17 00:23:12;;;;;;;12.82;5.50;;;;;;;7.46;100.00;102277.97;5037903;28;20057;-82
2023/05/17 00:25:37;;;;;;;14.85;5.25;;;;;;;7.49;100.00;102285.88;5050794;28;20369;-82
2023/05/17 00:28:03;;;;;;;14.10;5.18;;;;;;;7.39;100.00;102289.53;5054676;28;20116;-82
2023/05/17 00:30:28;;;;;;;15.73;6.18;;;;;;;7.33;100.00;102279.03;5055137;28;20477;-82
2023/05/17 00:32:53;;;;;;;20.05;6.03;;;;;;;7.32;100.00;102282.59;5061491;28;20035;-82
2023/05/17 00:35:19;;;;;;;11.32;5.55;;;;;;;7.38;100.00;102286.00;5050600;28;20034;-82
2023/05/17 00:37:46;;;;;;;12.70;5.55;;;;;;;7.28;100.00;102278.25;5052917;28;20043;-83
2023/05/17 00:40:14;;;;;;;15.75;5.68;;;;;;;7.30;100.00;102285.25;5026234;28;20371;-83
2023/05/17 00:42:39;;;;;;;16.40;6.68;;;;;;;7.29;100.00;102282.63;5050264;28;20028;-82
2023/05/17 00:45:05;;;;;;;15.73;5.82;;;;;;;7.24;100.00;102285.34;5057727;28;20032;-82
2023/05/17 00:47:30;;;;;;;14.18;5.35;;;;;;;7.23;100.00;102286.22;5043099;28;20631;-82
2023/05/17 00:49:56;;;;;;;17.27;7.15;;;;;;;7.17;100.00;102281.03;5043352;28;20024;-82
2023/05/17 00:52:21;;;;;;;13.10;5.68;;;;;;;7.11;100.00;102268.75;5049348;28;20028;-82
2023/05/17 00:54:49;;;;;;;13.55;6.25;;;;;;;7.17;100.00;102281.03;5060750;28;20024;-82
2023/05/17 00:57:15;;;;;;;13.60;5.55;;;;;;;7.16;100.00;102282.81;5056869;28;20024;-82
2023/05/17 00:59:43;;;;;;;13.90;5.60;;;;;;;7.12;100.00;102277.56;5046425;28;20410;-82
2023/05/17 01:02:09;;;;;;;13.80;5.57;;;;;;;7.17;100.00;102287.19;5049864;28;20039;-81
2023/05/17 01:04:35;;;;;;;14.27;6.45;;;;;;;7.17;100.00;102283.69;5054054;28;20564;-82
2023/05/17 01:07:00;;;;;;;15.65;6.03;;;;;;;7.11;100.00;102276.69;5053394;28;20616;-83
2023/05/17 01:09:26;;;;;;;15.07;6.72;;;;;;;7.10;100.00;102282.88;5025544;28;20059;-83
2023/05/17 01:12:15;;;;;;;16.83;6.13;;;;;;;7.08;100.00;102275.88;5032509;28;20620;-82
2023/05/17 01:15:02;;;;;;;15.20;6.13;;;;;;;7.04;100.00;102284.75;5032448;28;20501;-83
2023/05/17 01:18:06;;;;;;;13.40;5.93;;;;;;;6.99;100.00;102276.88;5033613;28;20109;-83
2023/05/17 01:20:36;;;;;;;14.02;6.43;;;;;;;6.96;100.00;102277.75;5033006;28;20044;-82
2023/05/17 01:23:41;;;;;;;13.35;6.38;;;;;;;6.96;100.00;102282.19;5036139;28;20689;-83
2023/05/17 01:26:12;;;;;;;15.90;6.93;;;;;;;6.90;100.00;102277.84;5021495;28;20132;-82
2023/05/17 01:28:39;;;;;;;14.73;7.03;;;;;;;6.91;100.00;102276.09;5035659;28;20038;-83
2023/05/17 01:31:07;;;;;;;12.77;6.80;;;;;;;6.85;100.00;102270.84;5031772;28;20074;-82
2023/05/17 01:33:33;;;;;;;12.50;7.20;;;;;;;6.79;100.00;102274.47;5034200;28;20502;-82
2023/05/17 01:35:58;;;;;;;14.10;6.50;;;;;;;6.82;100.00;102284.16;5032789;28;20107;-82
2023/05/17 01:38:24;;;;;;;15.25;6.68;;;;;;;6.76;100.00;102271.84;5035105;28;20045;-83
2023/05/17 01:41:27;;;;;;;16.67;7.03;;;;;;;6.78;100.00;102283.31;5021898;28;20049;-82
2023/05/17 01:44:06;;;;;;;16.85;6.80;;;;;;;6.80;100.00;102284.16;5032689;28;20055;-83
2023/05/17 01:46:41;;;;;;;14.02;6.78;;;;;;;6.74;100.00;102282.47;5039700;28;20124;-83
2023/05/17 01:49:28;;;;;;;14.35;6.80;;;;;;;6.71;100.00;102271.03;5031124;28;20029;-83
2023/05/17 01:52:04;;;;;;;16.20;6.70;;;;;;;6.64;100.00;102272.00;5029259;28;20091;-83
2023/05/17 01:54:38;;;;;;;10.50;6.40;;;;;;;6.64;100.00;102277.28;5033014;28;20104;-83
2023/05/17 01:57:05;;;;;;;15.30;6.82;;;;;;;6.59;100.00;102271.19;5039242;28;20037;-83
2023/05/17 01:59:33;;;;;;;13.20;6.93;;;;;;;6.62;100.00;102277.31;5035811;28;20400;-83
2023/05/17 02:02:08;;;;;;;17.27;6.65;;;;;;;6.64;100.00;102282.56;5033454;28;20494;-83
2023/05/17 02:04:35;;;;;;;12.18;6.47;;;;;;;6.57;100.00;102276.50;5034190;28;20116;-83
2023/05/17 02:07:00;;;;;;;11.02;7.07;;;;;;;6.57;100.00;102267.69;5030348;28;20036;-83
2023/05/17 02:09:25;;;;;;;17.67;6.53;;;;;;;6.51;100.00;102267.75;5031311;28;20044;-83
2023/05/17 02:11:51;;;;;;;13.63;7.47;;;;;;;6.59;100.00;102271.19;5040809;28;20094;-83
2023/05/17 02:14:16;;;;;;;14.48;6.82;;;;;;;6.51;100.00;102271.25;5051635;28;20393;-83
2023/05/17 02:16:41;;;;;;;17.48;7.35;;;;;;;6.57;100.00;102283.56;5055010;28;20020;-83
2023/05/17 02:19:07;;;;;;;16.20;6.90;;;;;;;6.53;100.00;102274.78;5046032;28;20446;-83
2023/05/17 02:21:36;;;;;;;19.88;7.90;;;;;;;6.54;100.00;102288.88;5055283;28;20032;-83
2023/05/17 02:24:01;;;;;;;15.50;7.60;;;;;;;6.50;100.00;102274.81;5055068;28;20264;-83
2023/05/17 02:26:27;;;;;;;18.63;8.07;;;;;;;6.45;100.00;102277.50;5057699;28;20556;-83
2023/05/17 02:28:52;;;;;;;20.33;8.20;;;;;;;6.45;100.00;102276.63;5035359;28;20032;-83
2023/05/17 02:31:18;;;;;;;14.55;7.82;;;;;;;6.45;100.00;102284.56;5040285;28;20258;-83
2023/05/17 02:33:44;;;;;;;15.77;7.88;;;;;;;6.46;100.00;102287.19;5058363;28;20024;-83
2023/05/17 02:36:10;;;;;;;23.20;9.25;;;;;;;6.42;100.00;102282.81;5055858;28;20504;-83
2023/05/17 02:38:35;;;;;;;20.20;8.30;;;;;;;6.46;100.00;102281.88;5049325;28;20036;-83
2023/05/17 02:41:00;;;;;;;20.83;8.00;;;;;;;6.43;100.00;102281.03;5058576;28;20040;-83
2023/05/17 02:43:26;;;;;;;20.63;8.43;;;;;;;6.45;100.00;102285.44;5054278;28;20052;-83
2023/05/17 02:45:51;;;;;;;11.60;8.00;;;;;;;6.44;100.00;102282.81;5050807;28;20043;-83
2023/05/17 02:48:16;;;;;;;14.13;8.38;;;;;;;6.45;100.00;102282.78;5051458;28;20056;-83
2023/05/17 02:50:42;;;;;;;14.98;8.05;;;;;;;6.52;100.00;102298.59;5057492;28;20682;-83
2023/05/17 02:53:07;;;;;;;16.35;8.50;;;;;;;6.59;100.00;102297.63;5053879;28;20064;-83
2023/05/17 02:55:32;;;;;;;18.10;8.90;;;;;;;6.62;100.00;102306.41;5054778;28;20016;-83
2023/05/17 02:57:58;;;;;;;18.00;8.57;;;;;;;6.67;100.00;102303.72;5057331;28;20024;-83
2023/05/17 03:00:23;;;;;;;16.42;8.13;;;;;;;6.64;100.00;102306.38;5057859;28;20052;-83
2023/05/17 03:02:49;;;;;;;16.75;8.60;;;;;;;6.62;100.00;102302.91;5059564;28;20027;-82
2023/05/17 03:05:14;;;;;;;14.15;7.85;;;;;;;6.57;100.00;102310.88;5051223;28;20123;-83
2023/05/17 03:07:40;;;;;;;15.98;9.00;;;;;;;6.59;100.00;102309.09;5051102;28;20032;-83
2023/05/17 03:10:06;;;;;;;19.85;9.25;;;;;;;6.66;100.00;102304.63;5055722;28;20558;-83
2023/05/17 03:12:31;;;;;;;17.92;8.68;;;;;;;6.76;100.00;102314.19;5056431;28;20040;-83
2023/05/17 03:14:56;;;;;;;19.13;8.60;;;;;;;6.81;100.00;102306.19;5054045;28;20025;-82
2023/05/17 03:17:22;;;;;;;16.88;8.32;;;;;;;6.90;100.00;102314.03;5057270;28;20029;-82
2023/05/17 03:19:47;;;;;;;20.58;8.27;;;;;;;6.93;100.00;102306.91;5045121;28;20036;-82
2023/05/17 03:22:12;;;;;;;20.67;8.43;;;;;;;7.01;100.00;102306.81;5054404;28;20040;-81
2023/05/17 03:24:38;;;;;;;14.98;8.63;;;;;;;7.03;100.00;102320.94;5052635;28;20513;-81
2023/05/17 03:27:03;;;;;;;15.68;8.30;;;;;;;7.02;100.00;102307.69;5039714;28;20036;-83
2023/05/17 03:29:29;;;;;;;19.23;9.18;;;;;;;7.12;100.00;102314.63;5034040;28;20127;-83
2023/05/17 03:31:54;;;;;;;16.50;8.93;;;;;;;7.12;100.00;102315.50;5029724;28;20024;-83
2023/05/17 03:34:19;;;;;;;19.25;8.73;;;;;;;7.14;100.00;102331.38;5057903;28;20397;-81
2023/05/17 03:36:45;;;;;;;20.35;8.95;;;;;;;7.17;100.00;102329.56;5050839;28;20032;-83
2023/05/17 03:39:10;;;;;;;17.52;9.23;;;;;;;7.20;100.00;102326.00;5042718;28;20043;-83
2023/05/17 03:41:35;;;;;;;18.00;8.27;;;;;;;7.21;100.00;102333.06;5042021;28;20127;-83
2023/05/17 03:44:01;;;;;;;20.60;9.13;;;;;;;7.21;100.00;102325.09;5064215;28;20036;-83
2023/05/17 03:46:26;;;;;;;15.50;8.63;;;;;;;7.18;100.00;102336.59;5055289;28;20474;-82
2023/05/17 03:48:51;;;;;;;18.30;9.52;;;;;;;7.27;100.00;102332.09;5032962;28;20620;-82
2023/05/17 03:51:17;;;;;;;17.67;8.93;;;;;;;7.30;100.00;102332.94;5044617;28;20464;-82
2023/05/17 03:53:42;;;;;;;17.48;8.93;;;;;;;7.38;100.00;102339.00;5052503;28;20025;-83
2023/05/17 03:56:09;;;;;;;16.27;8.43;;;;;;;7.36;100.00;102335.50;5035771;28;20526;-82
2023/05/17 03:58:34;;;;;;;23.25;8.93;;;;;;;7.40;100.00;102342.50;5056288;28;20047;-82
2023/05/17 04:01:00;;;;;;;15.55;7.90;;;;;;;7.44;100.00;102343.31;5037046;28;20536;-82
2023/05/17 04:03:25;;;;;;;16.80;8.18;;;;;;;7.43;100.00;102339.78;5036469;28;20028;-83
2023/05/17 04:05:51;;;;;;;16.90;8.48;;;;;;;7.42;100.00;102340.72;5052876;28;20112;-82
2023/05/17 04:08:16;;;;;;;18.20;8.30;;;;;;;7.41;100.00;102335.44;5055187;28;20108;-82
2023/05/17 04:10:42;;;;;;;18.33;8.70;;;;;;;7.42;100.00;102348.66;5050461;28;20148;-82
2023/05/17 04:13:08;;;;;;;20.40;9.02;;;;;;;7.40;100.00;102341.66;5054673;28;20060;-82
2023/05/17 04:15:34;;;;;;;19.88;8.90;;;;;;;7.38;100.00;102356.66;5055218;28;20081;-82
2023/05/17 04:17:59;;;;;;;18.58;8.40;;;;;;;7.27;100.00;102359.44;5050879;28;20033;-82
2023/05/17 04:20:24;;;;;;;16.75;8.45;;;;;;;7.26;100.00;102360.34;5043722;28;20435;-82
2023/05/17 04:22:50;;;;;;;22.08;8.60;;;;;;;7.20;100.00;102360.44;5053758;28;20028;-82
2023/05/17 04:25:15;;;;;;;15.60;8.60;;;;;;;7.19;100.00;102364.88;5043701;28;20037;-82
2023/05/17 04:27:41;;;;;;;18.38;8.93;;;;;;;7.12;100.00;102357.00;5031745;28;20473;-81
2023/05/17 04:30:07;;;;;;;17.50;8.50;;;;;;;7.15;100.00;102359.63;5026880;28;20063;-82
2023/05/17 04:32:32;;;;;;;16.35;9.25;;;;;;;7.11;100.00;102361.44;5056571;28;20025;-82
2023/05/17 04:34:58;;;;;;;22.38;9.50;;;;;;;7.16;100.00;102374.59;5030549;28;20094;-82
2023/05/17 04:37:24;;;;;;;19.23;9.10;;;;;;;7.14;100.00;102371.09;5051240;28;20095;-83
2023/05/17 04:39:51;;;;;;;20.77;9.10;;;;;;;7.17;100.00;102376.34;5048465;28;20052;-83
2023/05/17 04:42:17;;;;;;;19.98;9.57;;;;;;;7.13;100.00;102369.34;5052023;28;20036;-83
2023/05/17 04:44:42;;;;;;;19.55;9.65;;;;;;;7.13;100.00;102374.63;5048371;28;20039;-87
2023/05/17 04:47:08;;;;;;;18.40;10.02;;;;;;;7.20;100.00;102381.63;5050212;28;20044;-82
2023/05/17 04:49:33;;;;;;;19.42;9.73;;;;;;;7.20;100.00;102381.63;5047174;28;20458;-82
2023/05/17 04:51:58;;;;;;;19.05;10.02;;;;;;;7.22;100.00;102390.41;5048563;28;20035;-82
2023/05/17 04:54:24;;;;;;;19.63;9.77;;;;;;;7.26;100.00;102392.13;5055870;28;20528;-83
2023/05/17 04:56:50;;;;;;;21.33;9.63;;;;;;;7.29;100.00;102391.22;5049437;28;20052;-83
2023/05/17 04:59:15;;;;;;;23.67;9.50;;;;;;;7.33;100.00;102399.09;5047589;28;20533;-83
2023/05/17 05:01:40;;;;;;;23.30;10.43;;;;;;;7.35;100.00;102396.44;5051924;28;20028;-83
2023/05/17 05:04:06;;;;;;;19.38;10.05;;;;;;;7.43;100.00;102400.72;5052343;28;20021;-83
2023/05/17 05:06:34;;;;;;;25.77;11.90;;;;;;;7.50;100.00;102401.53;5058789;28;20030;-83
2023/05/17 05:09:00;;;;;;;20.83;10.95;;;;;;;7.54;100.00;102391.78;5055048;28;20503;-83
2023/05/17 05:11:26;;;;;;;22.70;10.77;;;;;;;7.65;100.00;102406.66;5051034;28;20049;-83
2023/05/17 05:13:51;;;;;;;20.88;10.25;;;;;;;7.72;100.00;102408.28;5042806;28;20021;-83
2023/05/17 05:16:16;;;;;;;21.60;11.98;;;;;;;7.79;100.00;102406.44;5054380;28;20033;-82
2023/05/17 05:18:42;;;;;;;22.15;11.73;;;;;;;7.89;100.00;102409.81;5049219;28;20044;-82
2023/05/17 05:21:07;;;;;;;19.75;10.65;;;;;;;7.96;100.00;102412.38;5047836;28;20537;-82
2023/05/17 05:23:32;;;;;;;21.27;10.73;;;;;;;8.10;100.00;102416.56;5045596;28;20029;-82
2023/05/17 05:25:58;;;;;;;23.58;11.55;;;;;;;8.17;100.00;102412.94;5059896;28;20129;-82
2023/05/17 05:28:23;;;;;;;22.50;10.65;;;;;;;8.35;100.00;102419.72;5053987;28;20424;-81
2023/05/17 05:30:48;;;;;;;25.02;11.15;;;;;;;8.57;100.00;102415.84;5053897;28;20033;-83
2023/05/17 05:33:14;;;;;;;23.52;9.88;;;;;;;8.82;100.00;102426.91;5047883;28;20055;-82
2023/05/17 05:35:39;;;;;;;23.48;10.65;;;;;;;8.86;100.00;102423.28;5054778;28;20475;-82
2023/05/17 05:38:05;;;;;;;19.30;9.55;;;;;;;8.86;100.00;102430.34;5038723;28;20099;-82
2023/05/17 05:40:30;;;;;;;20.98;10.05;;;;;;;8.90;100.00;102432.94;5059909;28;20024;-82
2023/05/17 05:42:55;;;;;;;19.85;9.35;;;;;;;8.92;100.00;102436.44;5057075;28;20024;-81
2023/05/17 05:45:21;;;;;;;25.52;10.48;;;;;;;9.08;100.00;102442.34;5044497;28;20081;-82
2023/05/17 05:47:46;;;;;;;20.33;9.80;;;;;;;9.11;100.00;102444.94;5051804;28;20029;-81
2023/05/17 05:50:11;;;;;;;21.58;8.93;;;;;;;9.19;100.00;102442.13;5053129;28;20027;-82
2023/05/17 05:52:37;;;;;;;19.80;9.00;;;;;;;9.23;100.00;102444.69;5032827;28;20486;-82
2023/05/17 05:55:02;;;;;;;18.75;9.05;;;;;;;9.52;100.00;102439.69;5056963;28;20031;-82
2023/05/17 05:57:28;;;;;;;19.92;8.98;;;;;;;9.66;100.00;102446.47;5051405;28;20028;-82
2023/05/17 05:59:53;;;;;;;18.30;9.25;;;;;;;9.76;100.00;102447.16;5050621;28;20032;-82
2023/05/17 06:02:20;;;;;;;18.20;8.57;;;;;;;10.03;100.00;102452.75;5050030;28;20033;-83
2023/05/17 06:04:47;;;;;;;22.13;9.18;;;;;;;10.14;100.00;102445.41;5044324;28;20020;-82
2023/05/17 06:07:15;;;;;;;20.83;8.52;;;;;;;10.26;100.00;102458.44;5030569;28;20020;-83
2023/05/17 06:09:41;;;;;;;19.58;8.07;;;;;;;10.49;100.00;102452.56;5055624;28;20032;-82
2023/05/17 06:12:07;;;;;;;16.77;7.68;;;;;;;10.55;100.00;102463.06;5056973;28;20121;-82
2023/05/17 06:14:32;;;;;;;13.77;6.32;;;;;;;10.75;99.00;102467.03;5025848;28;20424;-82
2023/05/17 06:16:58;;;;;;;13.50;6.10;;;;;;;10.80;97.34;102465.09;5032921;28;20056;-82
2023/05/17 06:19:23;;;;;;;14.45;7.18;;;;;;;10.87;95.33;102470.25;5057410;28;20020;-82
2023/05/17 06:21:48;;;;;;;16.85;6.03;;;;;;;11.03;93.98;102483.13;5049220;28;20391;-83
2023/05/17 06:24:15;;;;;;;15.90;5.70;;;;;;;11.08;91.83;102482.13;5044441;28;20172;-82
2023/05/17 06:26:42;;;;;;;16.13;6.15;;;;;;;11.14;89.36;102481.06;5050951;28;20029;-83
2023/05/17 06:29:08;;;;;;;13.70;5.20;;;;;;;11.18;88.64;102480.94;5029454;28;20082;-81
2023/05/17 06:31:33;;;;;;;15.40;5.60;;;;;;;11.24;86.99;102482.56;5047246;28;20020;-82
2023/05/17 06:33:58;;;;;;;17.30;6.05;;;;;;;11.21;87.65;102486.19;5044337;28;20032;-82
2023/05/17 06:36:24;;;;;;;16.63;4.90;;;;;;;11.31;85.80;102494.81;5047347;28;20063;-83
2023/05/17 06:38:49;;;;;;;15.90;5.70;;;;;;;11.41;86.04;102482.09;5060637;28;20035;-83
2023/05/17 06:41:16;;;;;;;12.50;4.28;;;;;;;11.53;81.26;102491.53;5064786;28;20107;-83
2023/05/17 06:43:41;;;;;;;16.27;4.45;;;;;;;11.56;79.57;102491.44;5055247;28;20116;-83
2023/05/17 06:46:06;;;;;;;13.13;4.25;;;;;;;11.75;81.51;102486.47;5062100;28;20094;-84
2023/05/17 06:48:32;;;;;;;13.82;4.47;;;;;;;11.86;77.40;102489.69;5056966;28;20033;-84
2023/05/17 06:50:57;;;;;;;12.27;4.15;;;;;;;11.98;74.89;102491.13;5054869;28;20091;-84
2023/05/17 06:53:22;;;;;;;12.70;4.55;;;;;;;11.95;73.89;102500.09;5048442;28;20525;-84
2023/05/17 06:55:48;;;;;;;11.95;3.70;;;;;;;12.06;74.17;102489.97;5061780;28;20028;-83
2023/05/17 06:58:13;;;;;;;11.43;4.65;;;;;;;12.32;74.28;102490.94;5050144;28;20056;-84
2023/05/17 07:00:39;;;;;;;14.23;4.18;;;;;;;12.45;69.60;102495.84;5042431;28;20105;-83
2023/05/17 07:03:04;;;;;;;15.10;3.92;;;;;;;12.28;69.42;102491.97;5057587;28;20659;-83
2023/05/17 07:05:29;;;;;;;11.15;4.38;;;;;;;12.06;70.13;102502.44;5049729;28;20033;-84
2023/05/17 07:07:57;;;;;;;11.80;3.97;;;;;;;12.29;71.30;102496.38;5052449;28;20075;-83
2023/05/17 07:10:23;;;;;;;11.70;3.95;;;;;;;12.75;70.48;102506.47;5034804;28;20033;-83
2023/05/17 07:12:51;;;;;;;12.40;4.35;;;;;;;13.15;67.38;102513.97;5049163;28;20049;-83
2023/05/17 07:15:16;;;;;;;12.52;3.67;;;;;;;13.40;65.45;102508.66;5064801;28;20024;-83
2023/05/17 07:17:42;;;;;;;13.77;3.88;;;;;;;13.22;64.63;102495.94;5067359;28;20033;-83
2023/05/17 07:20:07;;;;;;;12.02;3.63;;;;;;;12.70;61.49;102511.94;5052061;28;20033;-83
2023/05/17 07:22:33;;;;;;;10.10;3.00;;;;;;;12.38;64.60;102512.13;5049547;28;20032;-83
2023/05/17 07:24:58;;;;;;;12.30;3.65;;;;;;;12.02;64.40;102512.34;5055680;28;20058;-83
2023/05/17 07:27:23;;;;;;;12.00;3.20;;;;;;;11.89;65.44;102522.50;5052368;28;20036;-83
2023/05/17 07:29:49;;;;;;;12.65;3.38;;;;;;;11.71;64.59;102512.34;5050690;28;20020;-84
2023/05/17 07:32:14;;;;;;;13.95;3.72;;;;;;;11.55;64.52;102521.72;5046410;28;21843;-83
2023/05/17 07:34:40;;;;;;;10.57;3.55;;;;;;;11.65;66.25;102525.84;5058055;28;20544;-84
2023/05/17 07:37:05;;;;;;;14.63;3.58;;;;;;;12.30;62.83;102525.72;5056258;28;20067;-84
2023/05/17 07:39:31;;;;;;;18.75;4.05;;;;;;;12.26;62.73;102521.41;5030265;28;20025;-84
2023/05/17 07:41:56;;;;;;;11.88;3.67;;;;;;;12.10;64.64;102526.31;5049559;28;20123;-83
2023/05/17 07:44:21;;;;;;;12.25;3.17;;;;;;;12.63;62.73;102528.25;5052882;28;20029;-84
2023/05/17 07:46:47;;;;;;;10.10;3.67;;;;;;;13.02;61.44;102527.81;5037632;28;20029;-83
2023/05/17 07:49:13;;;;;;;15.85;4.45;;;;;;;13.35;62.56;102533.84;5033650;28;20082;-84
2023/05/17 07:51:38;;;;;;;9.00;3.10;;;;;;;13.25;57.55;102535.97;5049098;28;20025;-84
2023/05/17 07:54:03;;;;;;;10.10;3.42;;;;;;;13.21;58.93;102529.81;5054571;28;20360;-84
2023/05/17 07:56:29;;;;;;;9.25;3.20;;;;;;;13.39;57.41;102539.00;5050503;28;20029;-83
2023/05/17 07:58:55;;;;;;;10.50;2.88;;;;;;;13.16;57.68;102546.91;5036672;28;20031;-83
2023/05/17 08:01:22;;;;;;;13.15;3.40;;;;;;;12.97;57.75;102541.34;5055228;28;20468;-83
2023/05/17 08:03:48;;;;;;;9.45;3.05;;;;;;;12.74;58.68;102536.75;5054505;28;20119;-83
2023/05/17 08:06:17;;;;;;;9.80;2.92;;;;;;;12.37;58.80;102545.06;5059360;28;20787;-84
2023/05/17 08:08:43;;;;;;;15.32;3.55;;;;;;;12.21;59.79;102545.56;5037959;28;20021;-83
2023/05/17 08:11:10;;;;;;;12.90;3.10;;;;;;;12.71;58.52;102547.56;5027675;28;20069;-83
2023/05/17 08:13:35;;;;;;;8.65;2.70;;;;;;;14.37;54.36;102539.78;5035023;28;20078;-83
2023/05/17 08:16:02;;;;;;;9.60;3.13;;;;;;;15.88;51.07;102541.41;5033279;28;20029;-83
2023/05/17 08:18:31;;;;;;;13.05;3.15;;;;;;;15.83;49.11;102539.84;5034870;28;20041;-83
2023/05/17 08:20:56;;;;;;;11.40;3.63;;;;;;;15.13;51.18;102551.84;5029483;28;20044;-83
2023/05/17 08:23:21;;;;;;;11.63;3.33;;;;;;;14.49;52.57;102544.69;5041039;28;20025;-83
2023/05/17 08:25:47;;;;;;;10.63;3.20;;;;;;;14.54;53.16;102541.81;5033183;28;20822;-83
2023/05/17 08:28:12;;;;;;;13.68;3.33;;;;;;;16.21;49.28;102542.56;5030397;28;20040;-83
2023/05/17 08:30:38;;;;;;;10.27;2.80;;;;;;;17.48;43.79;102544.28;5027583;28;20378;-85
2023/05/17 08:33:03;;;;;;;9.88;2.88;;;;;;;18.51;41.25;102539.47;5036296;28;20044;-84
2023/05/17 08:35:28;;;;;;;7.85;2.55;;;;;;;19.32;39.18;102527.50;5040305;28;20033;-84
2023/05/17 08:37:54;;;;;;;7.85;2.78;;;;;;;20.75;37.64;102532.78;5031237;28;20068;-84
2023/05/17 08:40:20;;;;;;;7.38;2.42;;;;;;;20.62;34.30;102535.44;5036072;28;20494;-84
2023/05/17 08:42:46;;;;;;;10.63;2.38;;;;;;;20.00;34.69;102532.28;5030021;28;20033;-84
2023/05/17 08:45:12;;;;;;;8.75;3.05;;;;;;;18.73;37.89;102547.22;5031701;28;20026;-84
2023/05/17 08:47:41;;;;;;;11.32;3.13;;;;;;;18.14;39.96;102557.72;5031330;28;20021;-84
2023/05/17 08:50:06;;;;;;;11.73;2.75;;;;;;;16.99;41.53;102552.19;5034630;28;20048;-84
2023/05/17 08:52:34;;;;;;;10.30;2.88;;;;;;;16.05;44.03;102558.50;5032950;28;20505;-84
2023/05/17 08:55:04;;;;;;;9.75;2.80;;;;;;;15.30;45.66;102554.72;5030016;28;20101;-84
2023/05/17 08:57:32;;;;;;;7.60;2.13;;;;;;;16.15;45.97;102554.47;5029102;28;20021;-84
2023/05/17 09:00:01;;;;;;;7.55;2.65;;;;;;;16.97;42.28;102554.06;5026910;28;20029;-84
2023/05/17 09:02:29;;;;;;;9.45;3.38;;;;;;;18.05;39.73;102552.84;5038779;28;20441;-82
2023/05/17 09:04:56;;;;;;;8.50;2.95;;;;;;;19.38;38.41;102547.84;5030851;28;20178;-83
2023/05/17 09:07:21;;;;;;;9.50;2.50;;;;;;;20.56;34.50;102548.50;5027243;28;20029;-84
2023/05/17 09:09:52;;;;;;;9.15;2.47;;;;;;;21.16;33.74;102561.59;5034031;28;20039;-84
2023/05/17 09:12:21;;;;;;;8.13;2.80;;;;;;;20.68;33.37;102553.09;5033552;28;20098;-84
2023/05/17 09:14:47;;;;;;;10.65;3.00;;;;;;;21.26;32.61;102556.41;5030702;28;20520;-84
2023/05/17 09:17:15;;;;;;;7.40;2.33;;;;;;;22.18;32.18;102550.78;5038702;28;20496;-83
2023/05/17 09:19:46;;;;;;;7.53;2.22;;;;;;;23.01;31.05;102550.06;5036501;28;20104;-84
2023/05/17 09:22:13;;;;;;;7.78;2.00;;;;;;;23.57;28.68;102553.78;5032891;28;20124;-84
2023/05/17 09:24:40;;;;;;;8.77;2.63;;;;;;;24.33;28.35;102552.22;5037541;28;20067;-84
2023/05/17 09:27:06;;;;;;;8.23;2.20;;;;;;;24.62;28.25;102551.66;5023487;28;20510;-85
2023/05/17 09:29:31;;;;;;;8.10;2.67;;;;;;;25.05;27.31;102548.91;5032017;28;20033;-84
2023/05/17 09:32:11;;;;;;;6.40;2.10;;;;;;;24.10;29.64;102547.78;5034798;28;20064;-84
2023/05/17 09:34:39;;;;;;;8.85;2.30;;;;;;;21.05;30.89;102556.03;5031269;28;20388;-84
2023/05/17 09:37:05;;;;;;;7.80;2.65;;;;;;;19.70;33.63;102553.13;5030311;28;20045;-85
2023/05/17 09:39:31;;;;;;;8.90;2.50;;;;;;;19.25;34.95;102553.13;5035144;28;20024;-84
2023/05/17 09:41:56;;;;;;;8.48;2.40;;;;;;;20.14;33.60;102561.09;5036234;28;20105;-84
2023/05/17 09:44:23;;;;;;;7.70;2.20;;;;;;;20.57;33.15;102550.25;5033588;28;20108;-84
2023/05/17 09:46:49;;;;;;;10.50;2.50;;;;;;;21.86;31.74;102556.69;5035331;28;20031;-84
2023/05/17 09:49:16;;;;;;;8.00;2.50;;;;;;;23.21;29.44;102546.69;5036127;28;20065;-84
2023/05/17 09:51:44;;;;;;;6.65;2.50;;;;;;;24.72;27.21;102540.88;5029373;28;20099;-84
2023/05/17 09:54:10;;;;;;;6.25;2.35;;;;;;;26.11;25.87;102536.91;5038314;28;20029;-85
2023/05/17 09:56:35;;;;;;;7.22;2.38;;;;;;;26.81;26.04;102546.84;5036545;28;20032;-85
2023/05/17 09:59:03;;;;;;;6.90;2.30;;;;;;;26.63;24.27;102540.38;5023519;28;20044;-85
2023/05/17 10:01:30;;;;;;;6.20;2.20;;;;;;;26.35;24.68;102543.88;5036806;28;20029;-85
2023/05/17 10:04:01;;;;;;;7.93;2.47;;;;;;;24.22;26.43;102554.94;5032603;28;20754;-85
2023/05/17 10:06:28;;;;;;;7.32;2.38;;;;;;;23.15;27.56;102551.69;5030425;28;21379;-84
2023/05/17 10:08:56;;;;;;;6.70;2.55;;;;;;;24.27;27.17;102543.69;5030241;28;20103;-86
2023/05/17 10:11:27;;;;;;;6.50;2.00;;;;;;;24.61;27.09;102533.59;5030825;28;20059;-85
2023/05/17 10:14:30;;;;;;;8.65;2.35;;;;;;;25.55;26.46;102561.91;5033391;28;20522;-87
2023/05/17 10:16:56;;;;;;;6.35;2.30;;;;;;;25.26;25.02;102557.13;5031126;28;20028;-85
2023/05/17 10:19:23;;;;;;;6.88;2.10;;;;;;;25.57;24.89;102563.47;5035341;28;20036;-86
2023/05/17 10:21:53;;;;;;;7.65;2.22;;;;;;;24.94;25.88;102551.66;5038003;28;20024;-84
2023/05/17 10:24:20;;;;;;;6.97;1.90;;;;;;;25.26;24.35;102562.56;5037965;28;20035;-85
2023/05/17 10:26:49;;;;;;;7.93;2.38;;;;;;;26.30;24.98;102555.22;5034242;28;20394;-86
2023/05/17 10:29:15;;;;;;;4.85;1.92;;;;;;;27.46;22.99;102541.63;5029013;28;20118;-86
2023/05/17 10:31:44;;;;;;;5.25;2.00;;;;;;;27.17;22.21;102547.16;5033236;28;20032;-85
2023/05/17 10:34:10;;;;;;;7.57;2.15;;;;;;;26.32;23.64;102545.88;5029396;28;20116;-85
2023/05/17 10:36:36;;;;;;;8.68;2.53;;;;;;;24.96;24.71;102554.28;5036884;28;20523;-85
2023/05/17 10:39:06;;;;;;;6.07;2.10;;;;;;;22.84;27.58;102551.31;5041859;28;20047;-84
2023/05/17 10:41:36;;;;;;;7.50;2.38;;;;;;;21.03;30.07;102564.28;5031932;28;20024;-84
2023/05/17 10:44:04;;;;;;;8.50;2.30;;;;;;;21.91;29.20;102560.91;5029047;28;20034;-84
2023/05/17 10:46:30;;;;;;;9.98;2.10;;;;;;;23.72;26.58;102543.59;5032885;28;20028;-85
2023/05/17 10:48:59;;;;;;;5.72;2.17;;;;;;;25.71;25.59;102540.47;5033685;28;20090;-84
2023/05/17 10:51:36;;;;;;;9.05;2.42;;;;;;;26.36;23.62;102526.50;5029532;28;20087;-85
2023/05/17 10:54:01;;;;;;;6.70;2.13;;;;;;;25.47;24.43;102532.59;5037928;28;20522;-85
2023/05/17 10:56:30;;;;;;;5.72;2.03;;;;;;;24.79;25.16;102534.78;5033643;28;20044;-83
2023/05/17 10:59:16;;;;;;;5.72;1.85;;;;;;;26.41;25.38;102535.13;5032120;28;20021;-83
2023/05/17 11:01:57;;;;;;;6.60;2.05;;;;;;;28.17;23.68;102524.66;5033921;28;20024;-84
2023/05/17 11:04:25;;;;;;;6.22;1.92;;;;;;;28.66;21.48;102513.41;5025097;28;20226;-85
2023/05/17 11:07:14;;;;;;;5.53;1.88;;;;;;;29.06;20.88;102534.03;5024821;28;20118;-84
2023/05/17 11:09:39;;;;;;;5.68;1.70;;;;;;;29.74;18.19;102523.19;5027270;28;20288;-84
2023/05/17 11:12:06;;;;;;;5.90;1.60;;;;;;;30.31;17.66;102530.81;5048917;28;20199;-84
2023/05/17 11:14:43;;;;;;;6.45;1.90;;;;;;;30.48;19.64;102535.34;5031363;28;20113;-84
2023/05/17 11:17:13;;;;;;;7.47;2.40;;;;;;;30.49;18.42;102515.06;5050400;28;20081;-85
2023/05/17 11:19:56;;;;;;;8.00;1.95;;;;;;;31.10;19.21;102527.50;5049236;28;20048;-85